sensor_id;sensor_type;location;lat;lon;timestamp;temperature;humidity
54168;DHT22;68429;50.958;3.592;2023-06-05T00:02:12;13.80;99.90
54168;DHT22;68429;50.958;3.592;2023-06-05T00:04:38;13.70;99.90
54168;DHT22;68429;50.958;3.592;2023-06-05T00:07:05;13.80;99.90
54168;DHT22;68429;50.958;3.592;2023-06-05T00:09:31;13.70;99.90
54168;DHT22;68429;50.958;3.592;2023-06-05T00:11:56;13.60;99.90
54168;DHT22;68429;50.958;3.592;2023-06-05T00:14:22;13.70;99.90
54168;DHT22;68429;50.958;3.592;2023-06-05T00:16:48;13.70;99.90
54168;DHT22;68429;50.958;3.592;2023-06-05T00:19:17;13.60;99.90
54168;DHT22;68429;50.958;3.592;2023-06-05T00:21:42;13.60;99.90
54168;DHT22;68429;50.958;3.592;2023-06-05T00:24:08;13.60;99.90
54168;DHT22;68429;50.958;3.592;2023-06-05T00:26:34;13.60;99.90
54168;DHT22;68429;50.958;3.592;2023-06-05T00:28:59;13.60;99.90
54168;DHT22;68429;50.958;3.592;2023-06-05T00:31:25;13.70;99.90
54168;DHT22;68429;50.958;3.592;2023-06-05T00:33:51;13.70;99.90
54168;DHT22;68429;50.958;3.592;2023-06-05T00:36:17;13.70;99.90
54168;DHT22;68429;50.958;3.592;2023-06-05T00:38:44;13.70;99.90
54168;DHT22;68429;50.958;3.592;2023-06-05T00:41:10;13.60;99.90
54168;DHT22;68429;50.958;3.592;2023-06-05T00:43:36;13.50;99.90
54168;DHT22;68429;50.958;3.592;2023-06-05T00:46:03;13.60;99.90
54168;DHT22;68429;50.958;3.592;2023-06-05T00:48:30;13.50;99.90
54168;DHT22;68429;50.958;3.592;2023-06-05T00:50:58;13.40;99.90
54168;DHT22;68429;50.958;3.592;2023-06-05T00:53:24;13.30;99.90
54168;DHT22;68429;50.958;3.592;2023-06-05T00:55:51;13.20;99.90
54168;DHT22;68429;50.958;3.592;2023-06-05T00:58:17;13.20;99.90
54168;DHT22;68429;50.958;3.592;2023-06-05T01:00:43;13.20;99.90
54168;DHT22;68429;50.958;3.592;2023-06-05T01:03:09;13.10;99.90
54168;DHT22;68429;50.958;3.592;2023-06-05T01:05:37;13.10;99.90
54168;DHT22;68429;50.958;3.592;2023-06-05T01:08:04;13.10;99.90
54168;DHT22;68429;50.958;3.592;2023-06-05T01:10:31;13.10;99.90
54168;DHT22;68429;50.958;3.592;2023-06-05T01:16:04;13.30;99.90
54168;DHT22;68429;50.958;3.592;2023-06-05T01:18:31;13.20;99.90
54168;DHT22;68429;50.958;3.592;2023-06-05T01:21:00;13.10;99.90
54168;DHT22;68429;50.958;3.592;2023-06-05T01:23:27;13.00;99.90
54168;DHT22;68429;50.958;3.592;2023-06-05T01:25:57;13.00;99.90
54168;DHT22;68429;50.958;3.592;2023-06-05T01:28:29;13.00;99.90
54168;DHT22;68429;50.958;3.592;2023-06-05T01:31:12;13.00;99.90
54168;DHT22;68429;50.958;3.592;2023-06-05T01:33:57;13.00;99.90
54168;DHT22;68429;50.958;3.592;2023-06-05T01:36:23;13.00;99.90
54168;DHT22;68429;50.958;3.592;2023-06-05T01:38:51;13.00;99.90
54168;DHT22;68429;50.958;3.592;2023-06-05T01:41:19;13.00;99.90
54168;DHT22;68429;50.958;3.592;2023-06-05T01:43:46;13.00;99.90
54168;DHT22;68429;50.958;3.592;2023-06-05T01:46:16;13.00;99.90
54168;DHT22;68429;50.958;3.592;2023-06-05T01:48:42;12.90;99.90
54168;DHT22;68429;50.958;3.592;2023-06-05T01:51:08;12.80;99.90
54168;DHT22;68429;50.958;3.592;2023-06-05T01:53:34;12.80;99.90
54168;DHT22;68429;50.958;3.592;2023-06-05T01:56:00;12.80;99.90
54168;DHT22;68429;50.958;3.592;2023-06-05T01:58:26;12.80;99.90
54168;DHT22;68429;50.958;3.592;2023-06-05T02:00:53;12.80;99.90
54168;DHT22;68429;50.958;3.592;2023-06-05T02:03:20;12.70;99.90
54168;DHT22;68429;50.958;3.592;2023-06-05T02:05:46;12.70;99.90
54168;DHT22;68429;50.958;3.592;2023-06-05T02:08:12;12.60;99.90
54168;DHT22;68429;50.958;3.592;2023-06-05T02:10:39;12.60;99.90
54168;DHT22;68429;50.958;3.592;2023-06-05T02:13:08;12.70;99.90
54168;DHT22;68429;50.958;3.592;2023-06-05T02:15:34;12.70;99.90
54168;DHT22;68429;50.958;3.592;2023-06-05T02:18:01;12.50;99.90
54168;DHT22;68429;50.958;3.592;2023-06-05T02:20:28;12.40;99.90
54168;DHT22;68429;50.958;3.592;2023-06-05T02:22:54;12.40;99.90
54168;DHT22;68429;50.958;3.592;2023-06-05T02:25:21;12.40;99.90
54168;DHT22;68429;50.958;3.592;2023-06-05T02:27:51;12.30;99.90
54168;DHT22;68429;50.958;3.592;2023-06-05T02:30:17;12.40;99.90
54168;DHT22;68429;50.958;3.592;2023-06-05T02:32:43;12.30;99.90
54168;DHT22;68429;50.958;3.592;2023-06-05T02:35:12;12.30;99.90
54168;DHT22;68429;50.958;3.592;2023-06-05T02:37:38;12.30;99.90
54168;DHT22;68429;50.958;3.592;2023-06-05T02:40:10;12.30;99.90
54168;DHT22;68429;50.958;3.592;2023-06-05T02:42:37;12.30;99.90
54168;DHT22;68429;50.958;3.592;2023-06-05T02:45:03;12.30;99.90
54168;DHT22;68429;50.958;3.592;2023-06-05T02:47:29;12.20;99.90
54168;DHT22;68429;50.958;3.592;2023-06-05T02:49:56;12.10;99.90
54168;DHT22;68429;50.958;3.592;2023-06-05T02:52:22;12.10;99.90
54168;DHT22;68429;50.958;3.592;2023-06-05T02:54:48;12.10;99.90
54168;DHT22;68429;50.958;3.592;2023-06-05T02:57:13;12.10;99.90
54168;DHT22;68429;50.958;3.592;2023-06-05T02:59:41;12.10;99.90
54168;DHT22;68429;50.958;3.592;2023-06-05T03:02:07;12.10;99.90
54168;DHT22;68429;50.958;3.592;2023-06-05T03:04:32;12.20;99.90
54168;DHT22;68429;50.958;3.592;2023-06-05T03:06:58;12.20;99.90
54168;DHT22;68429;50.958;3.592;2023-06-05T03:09:24;12.10;99.90
54168;DHT22;68429;50.958;3.592;2023-06-05T03:11:51;12.10;99.90
54168;DHT22;68429;50.958;3.592;2023-06-05T03:14:17;12.10;99.90
54168;DHT22;68429;50.958;3.592;2023-06-05T03:16:43;12.20;99.90
54168;DHT22;68429;50.958;3.592;2023-06-05T03:19:09;12.20;99.90
54168;DHT22;68429;50.958;3.592;2023-06-05T03:21:37;12.10;99.90
54168;DHT22;68429;50.958;3.592;2023-06-05T03:24:08;12.10;99.90
54168;DHT22;68429;50.958;3.592;2023-06-05T03:26:34;12.10;99.90
54168;DHT22;68429;50.958;3.592;2023-06-05T03:29:00;12.00;99.90
54168;DHT22;68429;50.958;3.592;2023-06-05T03:31:26;11.90;99.90
54168;DHT22;68429;50.958;3.592;2023-06-05T03:33:51;11.90;99.90
54168;DHT22;68429;50.958;3.592;2023-06-05T03:36:17;12.00;99.90
54168;DHT22;68429;50.958;3.592;2023-06-05T03:38:44;12.00;99.90
54168;DHT22;68429;50.958;3.592;2023-06-05T03:41:10;12.00;99.90
54168;DHT22;68429;50.958;3.592;2023-06-05T03:43:36;12.10;99.90
54168;DHT22;68429;50.958;3.592;2023-06-05T03:46:02;12.00;99.90
54168;DHT22;68429;50.958;3.592;2023-06-05T03:48:28;11.90;99.90
54168;DHT22;68429;50.958;3.592;2023-06-05T03:50:53;11.90;99.90
54168;DHT22;68429;50.958;3.592;2023-06-05T03:53:21;11.90;99.90
54168;DHT22;68429;50.958;3.592;2023-06-05T03:55:48;11.80;99.90
54168;DHT22;68429;50.958;3.592;2023-06-05T03:58:18;11.80;99.90
54168;DHT22;68429;50.958;3.592;2023-06-05T04:00:46;11.80;99.90
54168;DHT22;68429;50.958;3.592;2023-06-05T04:03:12;11.70;99.90
54168;DHT22;68429;50.958;3.592;2023-06-05T04:05:39;11.80;99.90
54168;DHT22;68429;50.958;3.592;2023-06-05T04:08:06;11.90;99.90
54168;DHT22;68429;50.958;3.592;2023-06-05T04:10:32;11.90;99.90
54168;DHT22;68429;50.958;3.592;2023-06-05T04:12:58;12.00;99.90
54168;DHT22;68429;50.958;3.592;2023-06-05T04:15:24;12.00;99.90
54168;DHT22;68429;50.958;3.592;2023-06-05T04:17:49;11.90;99.90
54168;DHT22;68429;50.958;3.592;2023-06-05T04:20:15;11.90;99.90
54168;DHT22;68429;50.958;3.592;2023-06-05T04:22:42;11.90;99.90
54168;DHT22;68429;50.958;3.592;2023-06-05T04:25:09;12.00;99.90
54168;DHT22;68429;50.958;3.592;2023-06-05T04:27:37;12.10;99.90
54168;DHT22;68429;50.958;3.592;2023-06-05T04:30:05;12.10;99.90
54168;DHT22;68429;50.958;3.592;2023-06-05T04:32:31;12.10;99.90
54168;DHT22;68429;50.958;3.592;2023-06-05T04:35:00;12.00;99.90
54168;DHT22;68429;50.958;3.592;2023-06-05T04:37:26;12.20;99.90
54168;DHT22;68429;50.958;3.592;2023-06-05T04:39:52;12.20;99.90
54168;DHT22;68429;50.958;3.592;2023-06-05T04:42:17;12.40;99.90
54168;DHT22;68429;50.958;3.592;2023-06-05T04:44:43;12.50;99.90
54168;DHT22;68429;50.958;3.592;2023-06-05T04:47:09;12.60;99.90
54168;DHT22;68429;50.958;3.592;2023-06-05T04:49:35;12.50;99.90
54168;DHT22;68429;50.958;3.592;2023-06-05T04:52:00;12.50;99.90
54168;DHT22;68429;50.958;3.592;2023-06-05T04:54:26;12.60;99.90
54168;DHT22;68429;50.958;3.592;2023-06-05T04:56:52;12.70;99.90
54168;DHT22;68429;50.958;3.592;2023-06-05T04:59:18;12.80;99.90
54168;DHT22;68429;50.958;3.592;2023-06-05T05:01:44;12.90;99.90
54168;DHT22;68429;50.958;3.592;2023-06-05T05:04:10;13.00;99.90
54168;DHT22;68429;50.958;3.592;2023-06-05T05:06:37;13.00;99.90
54168;DHT22;68429;50.958;3.592;2023-06-05T05:09:04;13.10;99.90
54168;DHT22;68429;50.958;3.592;2023-06-05T05:11:29;13.10;99.90
54168;DHT22;68429;50.958;3.592;2023-06-05T05:13:55;13.10;99.90
54168;DHT22;68429;50.958;3.592;2023-06-05T05:16:21;13.20;99.90
54168;DHT22;68429;50.958;3.592;2023-06-05T05:18:47;13.40;99.90
54168;DHT22;68429;50.958;3.592;2023-06-05T05:21:13;13.50;99.90
54168;DHT22;68429;50.958;3.592;2023-06-05T05:23:39;13.60;99.90
54168;DHT22;68429;50.958;3.592;2023-06-05T05:26:04;13.70;99.90
54168;DHT22;68429;50.958;3.592;2023-06-05T05:28:30;13.80;99.90
54168;DHT22;68429;50.958;3.592;2023-06-05T05:30:56;13.70;99.90
54168;DHT22;68429;50.958;3.592;2023-06-05T05:33:22;13.90;99.90
54168;DHT22;68429;50.958;3.592;2023-06-05T05:35:48;13.90;99.90
54168;DHT22;68429;50.958;3.592;2023-06-05T05:38:14;13.90;99.90
54168;DHT22;68429;50.958;3.592;2023-06-05T05:40:40;14.00;99.90
54168;DHT22;68429;50.958;3.592;2023-06-05T05:43:06;14.30;99.90
54168;DHT22;68429;50.958;3.592;2023-06-05T05:45:31;14.30;99.90
54168;DHT22;68429;50.958;3.592;2023-06-05T05:47:57;14.60;99.90
54168;DHT22;68429;50.958;3.592;2023-06-05T05:50:23;14.90;99.90
54168;DHT22;68429;50.958;3.592;2023-06-05T05:52:48;15.00;99.90
54168;DHT22;68429;50.958;3.592;2023-06-05T05:55:16;15.00;99.90
54168;DHT22;68429;50.958;3.592;2023-06-05T05:57:41;15.00;99.90
54168;DHT22;68429;50.958;3.592;2023-06-05T06:00:07;15.00;99.90
54168;DHT22;68429;50.958;3.592;2023-06-05T06:02:38;14.80;99.90
54168;DHT22;68429;50.958;3.592;2023-06-05T06:05:05;14.80;99.90
54168;DHT22;68429;50.958;3.592;2023-06-05T06:07:31;14.70;99.90
54168;DHT22;68429;50.958;3.592;2023-06-05T06:09:57;14.80;99.90
54168;DHT22;68429;50.958;3.592;2023-06-05T06:12:24;15.00;99.90
54168;DHT22;68429;50.958;3.592;2023-06-05T06:14:50;15.00;99.90
54168;DHT22;68429;50.958;3.592;2023-06-05T06:17:15;15.10;99.90
54168;DHT22;68429;50.958;3.592;2023-06-05T06:19:42;15.20;99.90
54168;DHT22;68429;50.958;3.592;2023-06-05T06:22:08;15.30;99.90
54168;DHT22;68429;50.958;3.592;2023-06-05T06:24:38;15.40;99.90
54168;DHT22;68429;50.958;3.592;2023-06-05T06:27:04;14.90;99.90
54168;DHT22;68429;50.958;3.592;2023-06-05T06:29:30;15.20;99.90
54168;DHT22;68429;50.958;3.592;2023-06-05T06:31:56;15.70;99.90
54168;DHT22;68429;50.958;3.592;2023-06-05T06:34:22;15.80;99.90
54168;DHT22;68429;50.958;3.592;2023-06-05T06:36:50;15.90;99.90
54168;DHT22;68429;50.958;3.592;2023-06-05T06:39:16;16.20;99.90
54168;DHT22;68429;50.958;3.592;2023-06-05T06:41:44;16.30;99.90
54168;DHT22;68429;50.958;3.592;2023-06-05T06:44:10;16.40;99.90
54168;DHT22;68429;50.958;3.592;2023-06-05T06:46:36;16.10;99.90
54168;DHT22;68429;50.958;3.592;2023-06-05T06:49:02;15.60;99.90
54168;DHT22;68429;50.958;3.592;2023-06-05T06:51:28;15.70;99.90
54168;DHT22;68429;50.958;3.592;2023-06-05T06:53:54;15.80;99.90
54168;DHT22;68429;50.958;3.592;2023-06-05T06:56:20;15.80;99.90
54168;DHT22;68429;50.958;3.592;2023-06-05T06:58:46;15.80;99.90
54168;DHT22;68429;50.958;3.592;2023-06-05T07:01:13;16.30;99.90
54168;DHT22;68429;50.958;3.592;2023-06-05T07:03:40;16.50;99.90
54168;DHT22;68429;50.958;3.592;2023-06-05T07:06:06;16.60;99.90
54168;DHT22;68429;50.958;3.592;2023-06-05T07:08:33;16.60;99.90
54168;DHT22;68429;50.958;3.592;2023-06-05T07:10:58;16.00;99.90
54168;DHT22;68429;50.958;3.592;2023-06-05T07:13:24;16.20;99.90
54168;DHT22;68429;50.958;3.592;2023-06-05T07:15:51;15.80;99.90
54168;DHT22;68429;50.958;3.592;2023-06-05T07:18:17;15.90;99.90
54168;DHT22;68429;50.958;3.592;2023-06-05T07:20:43;16.20;99.90
54168;DHT22;68429;50.958;3.592;2023-06-05T07:23:09;16.50;99.90
54168;DHT22;68429;50.958;3.592;2023-06-05T07:25:35;16.60;99.90
54168;DHT22;68429;50.958;3.592;2023-06-05T07:28:09;16.70;99.90
54168;DHT22;68429;50.958;3.592;2023-06-05T07:30:37;16.90;99.90
54168;DHT22;68429;50.958;3.592;2023-06-05T07:33:03;16.80;99.90
54168;DHT22;68429;50.958;3.592;2023-06-05T07:35:29;16.90;99.90
54168;DHT22;68429;50.958;3.592;2023-06-05T07:37:54;16.90;99.90
54168;DHT22;68429;50.958;3.592;2023-06-05T07:40:20;17.10;99.90
54168;DHT22;68429;50.958;3.592;2023-06-05T07:42:46;17.30;99.90
54168;DHT22;68429;50.958;3.592;2023-06-05T07:45:12;17.30;99.90
54168;DHT22;68429;50.958;3.592;2023-06-05T07:47:37;17.40;99.90
54168;DHT22;68429;50.958;3.592;2023-06-05T07:50:03;17.40;99.90
54168;DHT22;68429;50.958;3.592;2023-06-05T07:52:31;17.40;99.90
54168;DHT22;68429;50.958;3.592;2023-06-05T07:54:57;17.50;99.90
54168;DHT22;68429;50.958;3.592;2023-06-05T07:57:23;17.30;99.90
54168;DHT22;68429;50.958;3.592;2023-06-05T07:59:55;17.40;99.90
54168;DHT22;68429;50.958;3.592;2023-06-05T08:02:21;17.60;99.90
54168;DHT22;68429;50.958;3.592;2023-06-05T08:04:48;17.80;99.90
54168;DHT22;68429;50.958;3.592;2023-06-05T08:07:14;17.60;99.90
54168;DHT22;68429;50.958;3.592;2023-06-05T08:09:40;17.30;99.90
54168;DHT22;68429;50.958;3.592;2023-06-05T08:12:06;17.10;99.90
54168;DHT22;68429;50.958;3.592;2023-06-05T08:14:33;17.30;99.90
54168;DHT22;68429;50.958;3.592;2023-06-05T08:16:59;17.70;99.90
54168;DHT22;68429;50.958;3.592;2023-06-05T08:19:26;17.70;99.90
54168;DHT22;68429;50.958;3.592;2023-06-05T08:21:53;17.70;99.90
54168;DHT22;68429;50.958;3.592;2023-06-05T08:24:22;17.70;99.90
54168;DHT22;68429;50.958;3.592;2023-06-05T08:26:48;18.00;99.90
54168;DHT22;68429;50.958;3.592;2023-06-05T08:29:14;18.20;99.90
54168;DHT22;68429;50.958;3.592;2023-06-05T08:31:39;17.90;99.90
54168;DHT22;68429;50.958;3.592;2023-06-05T08:34:05;17.90;99.90
54168;DHT22;68429;50.958;3.592;2023-06-05T08:36:31;17.90;99.90
54168;DHT22;68429;50.958;3.592;2023-06-05T08:38:58;17.90;99.90
54168;DHT22;68429;50.958;3.592;2023-06-05T08:41:25;17.70;99.90
54168;DHT22;68429;50.958;3.592;2023-06-05T08:43:51;18.00;99.90
54168;DHT22;68429;50.958;3.592;2023-06-05T08:46:17;18.30;99.90
54168;DHT22;68429;50.958;3.592;2023-06-05T08:48:48;18.40;99.90
54168;DHT22;68429;50.958;3.592;2023-06-05T08:51:17;18.40;99.90
54168;DHT22;68429;50.958;3.592;2023-06-05T08:56:19;18.50;99.90
54168;DHT22;68429;50.958;3.592;2023-06-05T08:58:46;18.60;99.90
54168;DHT22;68429;50.958;3.592;2023-06-05T09:01:12;18.60;99.90
54168;DHT22;68429;50.958;3.592;2023-06-05T09:03:37;18.40;99.90
54168;DHT22;68429;50.958;3.592;2023-06-05T09:06:03;18.50;99.90
54168;DHT22;68429;50.958;3.592;2023-06-05T09:08:31;18.80;99.90
54168;DHT22;68429;50.958;3.592;2023-06-05T09:13:46;19.10;99.90
54168;DHT22;68429;50.958;3.592;2023-06-05T09:16:12;19.40;99.90
54168;DHT22;68429;50.958;3.592;2023-06-05T09:18:58;19.50;99.90
54168;DHT22;68429;50.958;3.592;2023-06-05T09:21:27;19.10;99.90
54168;DHT22;68429;50.958;3.592;2023-06-05T09:24:17;19.20;99.90
54168;DHT22;68429;50.958;3.592;2023-06-05T09:26:57;19.20;99.90
54168;DHT22;68429;50.958;3.592;2023-06-05T09:29:24;19.10;99.90
54168;DHT22;68429;50.958;3.592;2023-06-05T09:31:52;19.20;99.90
54168;DHT22;68429;50.958;3.592;2023-06-05T09:34:22;19.20;99.90
54168;DHT22;68429;50.958;3.592;2023-06-05T09:36:48;19.30;99.90
54168;DHT22;68429;50.958;3.592;2023-06-05T09:39:14;19.10;99.90
54168;DHT22;68429;50.958;3.592;2023-06-05T09:41:45;19.40;99.90
54168;DHT22;68429;50.958;3.592;2023-06-05T09:44:11;19.70;99.90
54168;DHT22;68429;50.958;3.592;2023-06-05T09:49:26;20.30;99.90
54168;DHT22;68429;50.958;3.592;2023-06-05T09:51:53;20.00;99.90
54168;DHT22;68429;50.958;3.592;2023-06-05T09:54:20;20.50;99.70
54168;DHT22;68429;50.958;3.592;2023-06-05T09:56:48;20.70;99.90
54168;DHT22;68429;50.958;3.592;2023-06-05T09:59:21;20.90;99.10
54168;DHT22;68429;50.958;3.592;2023-06-05T10:01:49;20.80;98.70
54168;DHT22;68429;50.958;3.592;2023-06-05T10:04:18;21.10;99.00
54168;DHT22;68429;50.958;3.592;2023-06-05T10:06:44;21.60;97.80
54168;DHT22;68429;50.958;3.592;2023-06-05T10:09:13;21.50;97.90
54168;DHT22;68429;50.958;3.592;2023-06-05T10:11:40;22.20;97.50
54168;DHT22;68429;50.958;3.592;2023-06-05T10:14:08;22.80;97.10
54168;DHT22;68429;50.958;3.592;2023-06-05T10:16:34;22.40;96.50
54168;DHT22;68429;50.958;3.592;2023-06-05T10:19:01;22.90;96.80
54168;DHT22;68429;50.958;3.592;2023-06-05T10:21:28;23.40;95.70
54168;DHT22;68429;50.958;3.592;2023-06-05T10:24:09;23.80;95.70
54168;DHT22;68429;50.958;3.592;2023-06-05T10:29:33;24.50;94.00
54168;DHT22;68429;50.958;3.592;2023-06-05T10:40:29;24.20;94.10
54168;DHT22;68429;50.958;3.592;2023-06-05T10:46:02;24.40;93.40
54168;DHT22;68429;50.958;3.592;2023-06-05T10:49:15;23.70;94.00
54168;DHT22;68429;50.958;3.592;2023-06-05T10:52:00;24.10;94.30
54168;DHT22;68429;50.958;3.592;2023-06-05T10:59:26;25.70;91.80
54168;DHT22;68429;50.958;3.592;2023-06-05T11:07:28;25.20;92.80
54168;DHT22;68429;50.958;3.592;2023-06-05T11:15:41;25.90;92.00
54168;DHT22;68429;50.958;3.592;2023-06-05T11:20:56;26.60;90.80
54168;DHT22;68429;50.958;3.592;2023-06-05T11:23:23;25.20;91.70
54168;DHT22;68429;50.958;3.592;2023-06-05T11:25:56;25.10;91.80
54168;DHT22;68429;50.958;3.592;2023-06-05T11:28:42;24.80;91.80
54168;DHT22;68429;50.958;3.592;2023-06-05T11:31:09;24.30;92.40
54168;DHT22;68429;50.958;3.592;2023-06-05T11:33:35;25.00;92.20
54168;DHT22;68429;50.958;3.592;2023-06-05T11:36:03;24.70;92.00
54168;DHT22;68429;50.958;3.592;2023-06-05T11:38:29;25.20;91.30
54168;DHT22;68429;50.958;3.592;2023-06-05T11:40:55;25.30;91.00
54168;DHT22;68429;50.958;3.592;2023-06-05T11:43:21;25.40;91.50
54168;DHT22;68429;50.958;3.592;2023-06-05T11:45:55;26.10;90.60
54168;DHT22;68429;50.958;3.592;2023-06-05T11:48:22;26.10;91.10
54168;DHT22;68429;50.958;3.592;2023-06-05T11:53:18;25.10;91.20
54168;DHT22;68429;50.958;3.592;2023-06-05T11:55:44;24.40;91.90
54168;DHT22;68429;50.958;3.592;2023-06-05T11:58:27;24.10;92.60
54168;DHT22;68429;50.958;3.592;2023-06-05T12:01:07;25.60;91.60
54168;DHT22;68429;50.958;3.592;2023-06-05T12:03:38;26.40;90.40
54168;DHT22;68429;50.958;3.592;2023-06-05T12:06:04;26.40;90.40
54168;DHT22;68429;50.958;3.592;2023-06-05T12:08:32;25.60;90.80
54168;DHT22;68429;50.958;3.592;2023-06-05T12:10:59;26.10;91.30
54168;DHT22;68429;50.958;3.592;2023-06-05T12:13:47;27.00;90.30
54168;DHT22;68429;50.958;3.592;2023-06-05T12:16:13;26.60;89.50
54168;DHT22;68429;50.958;3.592;2023-06-05T12:18:39;25.90;91.10
54168;DHT22;68429;50.958;3.592;2023-06-05T12:21:05;26.50;89.50
54168;DHT22;68429;50.958;3.592;2023-06-05T12:23:32;25.80;90.30
54168;DHT22;68429;50.958;3.592;2023-06-05T12:26:04;25.90;90.00
54168;DHT22;68429;50.958;3.592;2023-06-05T12:28:33;25.90;90.60
54168;DHT22;68429;50.958;3.592;2023-06-05T12:30:59;26.60;89.90
54168;DHT22;68429;50.958;3.592;2023-06-05T12:33:25;27.00;89.50
54168;DHT22;68429;50.958;3.592;2023-06-05T12:36:06;26.80;88.20
54168;DHT22;68429;50.958;3.592;2023-06-05T12:38:42;26.90;87.90
54168;DHT22;68429;50.958;3.592;2023-06-05T12:41:08;26.70;89.10
54168;DHT22;68429;50.958;3.592;2023-06-05T12:43:35;26.50;89.30
54168;DHT22;68429;50.958;3.592;2023-06-05T12:46:01;26.30;89.60
54168;DHT22;68429;50.958;3.592;2023-06-05T12:48:27;26.40;89.50
54168;DHT22;68429;50.958;3.592;2023-06-05T12:50:52;26.50;87.80
54168;DHT22;68429;50.958;3.592;2023-06-05T12:53:20;25.20;90.60
54168;DHT22;68429;50.958;3.592;2023-06-05T12:55:46;25.90;89.90
54168;DHT22;68429;50.958;3.592;2023-06-05T12:58:11;27.00;89.00
54168;DHT22;68429;50.958;3.592;2023-06-05T13:00:37;26.70;87.60
54168;DHT22;68429;50.958;3.592;2023-06-05T13:03:03;26.60;88.20
54168;DHT22;68429;50.958;3.592;2023-06-05T13:05:30;26.10;88.40
54168;DHT22;68429;50.958;3.592;2023-06-05T13:07:58;26.20;89.30
54168;DHT22;68429;50.958;3.592;2023-06-05T13:10:24;25.80;89.70
54168;DHT22;68429;50.958;3.592;2023-06-05T13:12:50;26.10;90.20
54168;DHT22;68429;50.958;3.592;2023-06-05T13:15:16;26.10;89.60
54168;DHT22;68429;50.958;3.592;2023-06-05T13:17:42;26.10;89.80
54168;DHT22;68429;50.958;3.592;2023-06-05T13:20:09;26.00;89.60
54168;DHT22;68429;50.958;3.592;2023-06-05T13:22:39;25.00;90.30
54168;DHT22;68429;50.958;3.592;2023-06-05T13:25:08;24.20;91.60
54168;DHT22;68429;50.958;3.592;2023-06-05T13:27:35;24.20;91.30
54168;DHT22;68429;50.958;3.592;2023-06-05T13:30:01;24.40;90.70
54168;DHT22;68429;50.958;3.592;2023-06-05T13:32:29;25.20;90.10
54168;DHT22;68429;50.958;3.592;2023-06-05T13:34:55;25.00;90.90
54168;DHT22;68429;50.958;3.592;2023-06-05T13:37:22;25.50;90.10
54168;DHT22;68429;50.958;3.592;2023-06-05T13:39:48;25.50;90.60
54168;DHT22;68429;50.958;3.592;2023-06-05T13:42:14;25.40;91.80
54168;DHT22;68429;50.958;3.592;2023-06-05T13:44:40;25.10;92.50
54168;DHT22;68429;50.958;3.592;2023-06-05T13:47:06;24.80;92.00
54168;DHT22;68429;50.958;3.592;2023-06-05T13:49:34;25.10;92.70
54168;DHT22;68429;50.958;3.592;2023-06-05T13:52:00;25.40;92.50
54168;DHT22;68429;50.958;3.592;2023-06-05T13:54:25;25.70;92.50
54168;DHT22;68429;50.958;3.592;2023-06-05T13:56:51;26.10;91.00
54168;DHT22;68429;50.958;3.592;2023-06-05T13:59:17;25.80;91.80
54168;DHT22;68429;50.958;3.592;2023-06-05T14:01:43;25.40;91.60
54168;DHT22;68429;50.958;3.592;2023-06-05T14:04:08;25.60;92.00
54168;DHT22;68429;50.958;3.592;2023-06-05T14:06:34;25.20;92.40
54168;DHT22;68429;50.958;3.592;2023-06-05T14:09:04;25.10;93.00
54168;DHT22;68429;50.958;3.592;2023-06-05T14:11:29;25.50;92.50
54168;DHT22;68429;50.958;3.592;2023-06-05T14:13:55;25.30;92.80
54168;DHT22;68429;50.958;3.592;2023-06-05T14:16:21;24.40;92.70
54168;DHT22;68429;50.958;3.592;2023-06-05T14:18:47;24.40;93.40
54168;DHT22;68429;50.958;3.592;2023-06-05T14:21:12;24.60;92.90
54168;DHT22;68429;50.958;3.592;2023-06-05T14:23:38;24.60;93.10
54168;DHT22;68429;50.958;3.592;2023-06-05T14:26:04;24.80;93.00
54168;DHT22;68429;50.958;3.592;2023-06-05T14:28:30;24.50;93.50
54168;DHT22;68429;50.958;3.592;2023-06-05T14:30:56;25.20;92.80
54168;DHT22;68429;50.958;3.592;2023-06-05T14:33:21;25.20;92.70
54168;DHT22;68429;50.958;3.592;2023-06-05T14:35:47;25.20;92.20
54168;DHT22;68429;50.958;3.592;2023-06-05T14:38:13;24.80;93.00
54168;DHT22;68429;50.958;3.592;2023-06-05T14:40:39;24.10;93.50
54168;DHT22;68429;50.958;3.592;2023-06-05T14:43:05;24.10;93.30
54168;DHT22;68429;50.958;3.592;2023-06-05T14:45:31;23.80;93.80
54168;DHT22;68429;50.958;3.592;2023-06-05T14:47:57;23.80;94.10
54168;DHT22;68429;50.958;3.592;2023-06-05T14:50:23;23.80;94.00
54168;DHT22;68429;50.958;3.592;2023-06-05T14:52:48;23.30;94.30
54168;DHT22;68429;50.958;3.592;2023-06-05T14:55:14;23.30;94.50
54168;DHT22;68429;50.958;3.592;2023-06-05T14:57:40;23.50;94.50
54168;DHT22;68429;50.958;3.592;2023-06-05T15:00:06;23.70;94.70
54168;DHT22;68429;50.958;3.592;2023-06-05T15:02:34;23.70;94.40
54168;DHT22;68429;50.958;3.592;2023-06-05T15:04:59;23.40;94.40
54168;DHT22;68429;50.958;3.592;2023-06-05T15:07:38;23.50;94.50
54168;DHT22;68429;50.958;3.592;2023-06-05T15:10:05;23.40;94.20
54168;DHT22;68429;50.958;3.592;2023-06-05T15:12:33;23.20;94.70
54168;DHT22;68429;50.958;3.592;2023-06-05T15:14:59;22.80;95.00
54168;DHT22;68429;50.958;3.592;2023-06-05T15:17:24;22.40;95.30
54168;DHT22;68429;50.958;3.592;2023-06-05T15:19:50;22.40;96.10
54168;DHT22;68429;50.958;3.592;2023-06-05T15:22:16;23.00;95.00
54168;DHT22;68429;50.958;3.592;2023-06-05T15:24:41;22.80;94.80
54168;DHT22;68429;50.958;3.592;2023-06-05T15:27:09;22.30;95.50
54168;DHT22;68429;50.958;3.592;2023-06-05T15:29:36;22.20;95.70
54168;DHT22;68429;50.958;3.592;2023-06-05T15:32:02;22.60;95.60
54168;DHT22;68429;50.958;3.592;2023-06-05T15:34:27;22.50;95.40
54168;DHT22;68429;50.958;3.592;2023-06-05T15:36:53;22.40;95.10
54168;DHT22;68429;50.958;3.592;2023-06-05T15:39:18;22.10;95.60
54168;DHT22;68429;50.958;3.592;2023-06-05T15:41:44;22.30;95.40
54168;DHT22;68429;50.958;3.592;2023-06-05T15:44:13;22.00;95.80
54168;DHT22;68429;50.958;3.592;2023-06-05T15:46:39;21.80;96.60
54168;DHT22;68429;50.958;3.592;2023-06-05T15:49:05;21.90;96.10
54168;DHT22;68429;50.958;3.592;2023-06-05T15:51:31;22.10;96.20
54168;DHT22;68429;50.958;3.592;2023-06-05T15:53:59;22.20;95.70
54168;DHT22;68429;50.958;3.592;2023-06-05T15:56:25;22.00;95.70
54168;DHT22;68429;50.958;3.592;2023-06-05T15:58:54;21.70;96.40
54168;DHT22;68429;50.958;3.592;2023-06-05T16:01:20;21.60;96.80
54168;DHT22;68429;50.958;3.592;2023-06-05T16:03:46;21.50;96.80
54168;DHT22;68429;50.958;3.592;2023-06-05T16:06:11;21.60;96.80
54168;DHT22;68429;50.958;3.592;2023-06-05T16:08:39;21.80;96.50
54168;DHT22;68429;50.958;3.592;2023-06-05T16:11:07;21.10;97.10
54168;DHT22;68429;50.958;3.592;2023-06-05T16:13:37;21.30;97.30
54168;DHT22;68429;50.958;3.592;2023-06-05T16:16:03;21.20;97.50
54168;DHT22;68429;50.958;3.592;2023-06-05T16:18:29;21.10;97.60